Time;durP1;ratioP1;P1;durP2;ratioP2;P2;SDS_P1;SDS_P2;PMS_P1;PMS_P2;Temp;Humidity;BMP_temperature;BMP_pressure;BME280_temperature;BME280_humidity;BME280_pressure;Samples;Min_cycle;Max_cycle;Signal;HPM_P1;HPM_P2
2021/10/07 00:00:14;;;;;;;4.40;1.80;;;10.90;99.90;;;;;;5058070;28;20646;-96
2021/10/07 00:02:54;;;;;;;2.67;1.23;;;10.80;99.90;;;;;;5051026;28;20629;-96
2021/10/07 00:05:22;;;;;;;4.43;1.73;;;10.80;99.90;;;;;;5046697;28;20690;-96
2021/10/07 00:07:50;;;;;;;2.07;1.00;;;10.80;99.90;;;;;;5053421;28;20637;-96
2021/10/07 00:10:22;;;;;;;1.90;1.37;;;10.70;99.90;;;;;;5054066;28;20635;-96
2021/10/07 00:13:14;;;;;;;3.13;1.77;;;10.60;99.90;;;;;;5056156;28;20662;-96
2021/10/07 01:08:11;;;;;;;1.80;1.37;;;10.60;99.90;;;;;;5668237;22;20698;-95
2021/10/07 07:47:41;;;;;;;5.17;3.70;;;12.30;99.90;;;;;;5020605;28;20613;-96
2021/10/07 07:52:54;;;;;;;5.27;4.70;;;12.70;99.90;;;;;;5001456;28;20624;-96
2021/10/07 07:55:31;;;;;;;5.70;4.03;;;12.80;99.90;;;;;;5006315;28;20634;-95
2021/10/07 08:07:07;;;;;;;11.37;6.30;;;13.00;99.90;;;;;;5023651;28;20624;-95
2021/10/07 08:19:12;;;;;;;6.30;5.73;;;13.10;99.90;;;;;;4999373;28;21217;-95
2021/10/07 08:24:47;;;;;;;6.77;6.23;;;13.20;99.90;;;;;;4996765;28;21464;-95
2021/10/07 08:27:18;;;;;;;6.30;5.80;;;13.40;99.90;;;;;;5003503;28;20687;-95
2021/10/07 08:30:05;;;;;;;7.73;7.00;;;13.50;99.90;;;;;;4999976;28;21237;-96
2021/10/07 08:32:47;;;;;;;7.03;6.43;;;13.40;99.90;;;;;;5006720;28;20641;-94
2021/10/07 08:35:21;;;;;;;7.73;7.03;;;13.40;99.90;;;;;;5012396;28;21283;-92
2021/10/07 08:37:57;;;;;;;8.80;7.93;;;13.10;99.90;;;;;;5005328;28;20631;-95
2021/10/07 08:40:34;;;;;;;11.90;8.13;;;13.30;99.90;;;;;;4996060;28;20632;-95
2021/10/07 08:43:13;;;;;;;8.37;7.67;;;13.50;99.90;;;;;;4999154;28;20632;-94
2021/10/07 08:45:53;;;;;;;8.33;7.70;;;13.30;99.90;;;;;;5003555;28;20640;-95
2021/10/07 10:22:20;;;;;;;4.80;3.17;;;15.20;99.90;;;;;;5027186;28;20655;-96
2021/10/07 10:24:57;;;;;;;4.40;3.57;;;15.20;99.90;;;;;;5010573;28;20628;-96
2021/10/07 10:30:52;;;;;;;3.80;3.50;;;15.10;99.90;;;;;;5015641;28;20715;-96
2021/10/07 11:35:41;;;;;;;2.57;2.30;;;15.50;99.90;;;;;;5006814;28;20643;-95
2021/10/07 14:09:11;;;;;;;1.83;1.43;;;19.00;99.90;;;;;;5012147;28;20698;-96
2021/10/07 14:11:52;;;;;;;3.17;1.93;;;18.40;99.90;;;;;;5011707;28;21227;-95
2021/10/07 14:14:23;;;;;;;3.27;2.00;;;17.80;99.90;;;;;;4998246;28;20664;-96
2021/10/07 14:16:53;;;;;;;1.80;1.50;;;18.30;99.90;;;;;;4995722;28;20648;-94
2021/10/07 14:19:21;;;;;;;2.50;2.30;;;18.60;99.90;;;;;;4998615;28;20588;-94
2021/10/07 14:22:05;;;;;;;2.30;2.10;;;19.80;99.90;;;;;;4995707;28;20692;-95
2021/10/07 14:24:43;;;;;;;2.80;1.50;;;19.50;99.90;;;;;;4995098;28;20724;-94
2021/10/07 14:27:12;;;;;;;1.77;1.67;;;18.90;99.90;;;;;;4997948;28;20629;-94
2021/10/07 14:29:44;;;;;;;3.67;1.80;;;18.00;99.90;;;;;;4999674;28;21075;-94
2021/10/07 14:32:26;;;;;;;2.50;1.83;;;18.10;99.90;;;;;;4995872;28;20664;-93
2021/10/07 14:37:56;;;;;;;;;;;;;;;;;;;;;
2021/10/07 14:40:40;;;;;;;;;;;;;;;;;;;;;
2021/10/07 14:43:27;;;;;;;1.70;1.40;;;19.00;99.80;;;;;;4982004;28;20677;-94
2021/10/07 14:46:18;;;;;;;3.33;1.57;;;18.60;99.80;;;;;;4999057;28;20633;-94
2021/10/07 14:48:55;;;;;;;1.40;1.30;;;18.40;99.90;;;;;;5001099;28;20624;-96
2021/10/07 14:51:34;;;;;;;1.10;1.00;;;18.20;99.90;;;;;;5017542;28;20651;-93
2021/10/07 14:54:13;;;;;;;1.90;1.50;;;17.70;99.90;;;;;;5014846;28;20692;-95
2021/10/07 15:00:10;;;;;;;2.67;1.70;;;17.00;99.90;;;;;;4909359;29;21158;-96
2021/10/07 15:05:42;;;;;;;1.97;1.40;;;16.90;99.90;;;;;;4923402;29;20651;-96
2021/10/07 15:08:49;;;;;;;1.80;1.70;;;16.80;99.90;;;;;;4972138;28;20616;-96
2021/10/07 15:11:56;;;;;;;1.50;1.40;;;16.60;99.90;;;;;;5012692;28;20623;-96
2021/10/07 15:14:28;;;;;;;3.33;1.63;;;16.60;99.90;;;;;;5003146;28;20668;-96
2021/10/07 15:16:57;;;;;;;2.23;1.50;;;16.80;99.90;;;;;;4997968;28;20664;-94
2021/10/07 15:19:31;;;;;;;3.07;1.37;;;16.70;99.90;;;;;;4997826;28;20644;-96
2021/10/07 15:21:59;;;;;;;1.97;1.77;;;16.40;99.90;;;;;;5001251;28;20633;-94
2021/10/07 15:24:34;;;;;;;1.60;1.50;;;16.10;99.90;;;;;;5007561;28;20658;-95
2021/10/07 15:27:10;;;;;;;4.20;1.63;;;16.00;99.90;;;;;;5002113;28;20627;-94
2021/10/07 15:29:45;;;;;;;2.10;1.40;;;15.80;99.90;;;;;;5014627;28;20648;-94
2021/10/07 15:32:13;;;;;;;1.80;1.70;;;15.60;99.90;;;;;;5016135;28;20626;-95
2021/10/07 15:34:42;;;;;;;2.20;1.43;;;15.50;99.90;;;;;;5004114;28;20680;-94
2021/10/07 15:37:33;;;;;;;2.40;1.70;;;15.40;99.90;;;;;;5007031;28;20620;-94
2021/10/07 15:40:05;;;;;;;2.03;1.60;;;15.50;99.90;;;;;;5005779;28;20608;-94
2021/10/07 15:42:40;;;;;;;1.77;1.67;;;15.50;99.90;;;;;;4996358;28;20663;-96
2021/10/07 15:45:10;;;;;;;2.13;1.83;;;15.40;99.90;;;;;;5000885;28;20700;-95
2021/10/07 15:47:39;;;;;;;2.27;1.30;;;15.30;99.90;;;;;;5009095;28;20654;-95
2021/10/07 15:58:47;;;;;;;1.77;1.30;;;14.80;99.90;;;;;;5005003;28;20644;-95
2021/10/07 16:01:25;;;;;;;4.20;2.00;;;14.80;99.90;;;;;;5006356;28;20711;-96
2021/10/07 16:03:57;;;;;;;3.80;1.57;;;14.80;99.90;;;;;;4990811;28;20636;-96
2021/10/07 16:06:31;;;;;;;2.40;1.57;;;14.70;99.90;;;;;;5001315;28;20641;-95
2021/10/07 16:09:08;;;;;;;3.43;1.70;;;14.70;99.90;;;;;;5005586;28;20690;-96
2021/10/07 16:11:41;;;;;;;1.60;1.50;;;14.60;99.90;;;;;;5015162;28;20640;-95
2021/10/07 16:14:19;;;;;;;1.73;1.50;;;14.70;99.90;;;;;;4999588;28;20657;-95
2021/10/07 16:16:56;;;;;;;3.80;1.63;;;14.70;99.90;;;;;;5005133;28;20632;-94
2021/10/07 16:19:35;;;;;;;1.70;1.50;;;14.70;99.90;;;;;;5002274;28;20664;-95
2021/10/07 16:22:04;;;;;;;3.10;1.47;;;14.50;99.90;;;;;;4998312;28;20656;-96
2021/10/07 16:24:31;;;;;;;1.63;1.40;;;14.50;99.90;;;;;;5002624;28;20668;-95
2021/10/07 16:26:58;;;;;;;1.60;1.50;;;14.60;99.90;;;;;;5008951;28;20636;-94
2021/10/07 16:29:31;;;;;;;2.47;1.30;;;14.60;99.90;;;;;;5001585;28;20698;-96
2021/10/07 16:32:01;;;;;;;2.83;1.10;;;14.60;99.90;;;;;;5000196;28;21189;-96
2021/10/07 16:34:42;;;;;;;2.50;1.40;;;14.40;99.90;;;;;;4998027;28;20764;-96
2021/10/07 16:37:11;;;;;;;1.63;1.37;;;14.40;99.90;;;;;;5000751;28;20698;-96
2021/10/07 16:39:41;;;;;;;1.53;1.43;;;14.20;99.90;;;;;;4983077;28;20631;-96
2021/10/07 16:42:18;;;;;;;1.90;1.47;;;14.30;99.90;;;;;;4998137;28;20665;-95
2021/10/07 16:44:52;;;;;;;1.70;1.33;;;14.10;99.90;;;;;;5012874;28;20657;-94
2021/10/07 16:47:21;;;;;;;1.70;1.30;;;14.00;99.90;;;;;;5002436;28;20617;-94
2021/10/07 16:49:51;;;;;;;1.73;1.63;;;13.90;99.90;;;;;;5006975;28;20635;-95
2021/10/07 16:52:20;;;;;;;3.30;1.77;;;13.80;99.90;;;;;;4999783;28;20664;-95
2021/10/07 16:54:49;;;;;;;1.97;1.30;;;13.80;99.90;;;;;;5013848;28;20739;-94
2021/10/07 16:57:17;;;;;;;1.70;1.60;;;13.80;99.90;;;;;;5017504;28;20624;-94
2021/10/07 16:59:44;;;;;;;1.80;1.40;;;13.70;99.90;;;;;;5022994;28;20652;-94
2021/10/07 17:02:14;;;;;;;1.53;1.20;;;13.60;99.90;;;;;;5020613;28;20628;-95
2021/10/07 17:04:42;;;;;;;1.53;0.90;;;13.50;99.90;;;;;;5022430;28;20676;-94
2021/10/07 17:07:10;;;;;;;2.10;1.53;;;13.40;99.90;;;;;;4997639;28;20695;-94
2021/10/07 17:09:46;;;;;;;2.33;1.50;;;13.50;99.90;;;;;;4983262;28;20641;-93
2021/10/07 17:12:15;;;;;;;3.93;1.43;;;13.50;99.90;;;;;;5003675;28;21006;-96
2021/10/07 17:17:30;;;;;;;2.40;1.47;;;13.20;99.90;;;;;;5000302;28;20707;-95
2021/10/07 17:20:00;;;;;;;4.13;1.60;;;13.10;99.90;;;;;;4990687;28;20645;-94
2021/10/07 17:22:35;;;;;;;3.50;2.20;;;13.10;99.90;;;;;;4991756;28;20636;-95
2021/10/07 17:25:04;;;;;;;2.03;1.40;;;13.10;99.90;;;;;;4977120;28;20672;-96
2021/10/07 17:27:44;;;;;;;3.80;1.17;;;13.10;99.90;;;;;;5006378;28;20738;-94
2021/10/07 17:30:14;;;;;;;1.70;1.60;;;13.00;99.90;;;;;;5007087;28;20597;-95
2021/10/07 17:32:44;;;;;;;1.47;1.37;;;12.90;99.90;;;;;;5017311;28;20665;-96
2021/10/07 17:35:14;;;;;;;1.67;1.47;;;12.80;99.90;;;;;;5012989;28;20675;-96
2021/10/07 17:37:42;;;;;;;1.30;1.20;;;12.70;99.90;;;;;;4980595;28;20724;-96
2021/10/07 17:40:12;;;;;;;1.53;1.43;;;12.60;99.90;;;;;;5001140;28;20636;-95
2021/10/07 17:42:40;;;;;;;1.60;1.43;;;12.50;99.90;;;;;;5012035;28;20656;-94
2021/10/07 17:45:19;;;;;;;1.40;1.30;;;12.30;99.90;;;;;;5007706;28;20645;-94
2021/10/07 17:47:55;;;;;;;2.90;1.80;;;12.20;99.90;;;;;;5008548;28;20584;-96
2021/10/07 17:50:23;;;;;;;1.40;1.30;;;12.00;99.90;;;;;;5006159;28;20900;-96
2021/10/07 17:52:52;;;;;;;1.70;1.20;;;11.80;99.90;;;;;;5021921;28;20629;-95
2021/10/07 17:55:20;;;;;;;2.43;1.37;;;11.70;99.90;;;;;;5015581;28;20715;-96
2021/10/07 17:57:47;;;;;;;1.97;1.60;;;11.60;99.90;;;;;;5011709;28;20662;-96
2021/10/07 18:00:18;;;;;;;2.53;1.90;;;11.50;99.90;;;;;;4995709;28;20635;-96
2021/10/07 18:02:54;;;;;;;1.73;1.50;;;11.40;99.90;;;;;;5001564;28;20683;-95
2021/10/07 18:05:22;;;;;;;2.73;2.13;;;11.30;99.90;;;;;;4998490;28;20668;-95
2021/10/07 18:07:51;;;;;;;2.50;1.80;;;11.20;99.90;;;;;;4996772;28;20672;-95
2021/10/07 18:10:18;;;;;;;1.40;1.30;;;11.10;99.90;;;;;;4997460;28;20682;-95
2021/10/07 18:12:48;;;;;;;1.87;1.50;;;11.10;99.90;;;;;;5002091;28;20621;-95
2021/10/07 18:15:15;;;;;;;2.20;1.73;;;11.10;99.90;;;;;;4998654;28;20731;-96
2021/10/07 18:20:36;;;;;;;2.13;1.47;;;10.90;99.90;;;;;;4997420;28;20604;-94
2021/10/07 18:23:07;;;;;;;1.60;1.50;;;10.90;99.90;;;;;;4999205;28;20632;-95
2021/10/07 18:25:35;;;;;;;5.93;5.30;;;10.80;99.90;;;;;;5006921;28;20685;-95
2021/10/07 18:28:03;;;;;;;11.77;10.67;;;10.80;99.90;;;;;;5003532;28;20641;-94
2021/10/07 18:30:32;;;;;;;7.13;6.50;;;10.80;99.90;;;;;;5002748;28;20625;-95
2021/10/07 18:32:59;;;;;;;4.43;4.03;;;10.70;99.90;;;;;;5015330;28;20969;-95
2021/10/07 18:35:30;;;;;;;2.33;2.13;;;10.70;99.90;;;;;;4986906;28;21249;-95
2021/10/07 18:37:57;;;;;;;2.57;1.50;;;10.60;99.90;;;;;;5005086;28;20635;-95
2021/10/07 18:40:33;;;;;;;2.40;2.20;;;10.50;99.90;;;;;;5007211;28;20640;-94
2021/10/07 18:43:03;;;;;;;2.77;2.57;;;10.50;99.90;;;;;;5010349;28;20648;-95
2021/10/07 18:45:34;;;;;;;2.17;2.07;;;10.50;99.90;;;;;;5006328;28;20710;-95
2021/10/07 18:48:05;;;;;;;2.97;1.97;;;10.40;99.90;;;;;;5008223;28;21203;-95
2021/10/07 18:50:37;;;;;;;3.33;2.50;;;10.40;99.90;;;;;;5014132;28;20691;-95
2021/10/07 18:53:05;;;;;;;1.97;1.87;;;10.40;99.90;;;;;;5003511;28;20728;-96
2021/10/07 18:55:33;;;;;;;3.53;2.10;;;10.40;99.90;;;;;;5019295;28;20691;-96
2021/10/07 18:58:04;;;;;;;2.80;2.40;;;10.40;99.90;;;;;;5010804;28;20708;-95
2021/10/07 19:00:32;;;;;;;3.13;2.80;;;10.30;99.90;;;;;;5004623;28;20628;-95
2021/10/07 19:03:05;;;;;;;4.10;1.90;;;10.30;99.90;;;;;;5014257;28;20682;-95
2021/10/07 19:11:06;;;;;;;3.10;2.50;;;10.30;99.90;;;;;;5002356;28;20671;-94
2021/10/07 19:13:39;;;;;;;3.97;2.73;;;10.30;99.90;;;;;;5006860;28;20680;-96
2021/10/07 19:16:11;;;;;;;6.50;3.00;;;10.30;99.90;;;;;;5001053;28;20751;-94
2021/10/07 19:18:50;;;;;;;3.23;2.97;;;10.30;99.90;;;;;;5003405;28;20675;-94
2021/10/07 19:21:20;;;;;;;3.10;2.90;;;10.20;99.90;;;;;;4998793;28;20664;-93
2021/10/07 19:23:55;;;;;;;4.00;2.70;;;10.20;99.90;;;;;;4999153;28;20675;-96
2021/10/07 19:26:24;;;;;;;2.73;2.53;;;10.20;99.90;;;;;;5001946;28;20660;-93
2021/10/07 19:28:58;;;;;;;4.03;3.73;;;10.20;99.90;;;;;;5006746;28;20687;-96
2021/10/07 19:41:23;;;;;;;2.80;2.53;;;10.20;99.90;;;;;;5027606;28;20634;-96
2021/10/07 20:05:57;;;;;;;4.33;2.93;;;10.30;99.90;;;;;;5035253;28;20651;-95
2021/10/07 20:28:06;;;;;;;5.30;4.80;;;10.40;99.90;;;;;;5016822;28;20638;-94
2021/10/07 20:30:55;;;;;;;9.67;8.90;;;10.40;99.90;;;;;;5027794;28;20635;-95
2021/10/07 20:33:50;;;;;;;11.37;10.37;;;10.50;99.90;;;;;;5029942;28;20636;-95
2021/10/07 21:03:57;;;;;;;9.60;8.80;;;10.20;99.90;;;;;;5777993;22;20721;-95
2021/10/07 21:06:34;;;;;;;9.00;8.40;;;10.20;99.90;;;;;;5016355;28;20678;-95
2021/10/07 22:11:24;;;;;;;3.17;2.97;;;10.10;99.90;;;;;;5029662;28;20596;-96
2021/10/07 22:14:34;;;;;;;4.87;4.57;;;10.00;99.90;;;;;;5023338;28;20631;-96
